sensor_id;sensor_type;location;lat;lon;timestamp;P1;durP1;ratioP1;P2;durP2;ratioP2
78057;SDS011;67265;52.514;13.292;2023-05-10T00:02:10;5.03;;;2.65;;
78057;SDS011;67265;52.514;13.292;2023-05-10T00:04:37;4.22;;;2.85;;
78057;SDS011;67265;52.514;13.292;2023-05-10T00:07:04;3.53;;;3.00;;
78057;SDS011;67265;52.514;13.292;2023-05-10T00:09:30;8.93;;;3.58;;
78057;SDS011;67265;52.514;13.292;2023-05-10T00:11:56;5.30;;;3.15;;
78057;SDS011;67265;52.514;13.292;2023-05-10T00:14:24;5.38;;;3.08;;
78057;SDS011;67265;52.514;13.292;2023-05-10T00:16:51;4.25;;;2.85;;
78057;SDS011;67265;52.514;13.292;2023-05-10T00:19:17;5.93;;;3.25;;
78057;SDS011;67265;52.514;13.292;2023-05-10T00:21:44;7.75;;;3.13;;
78057;SDS011;67265;52.514;13.292;2023-05-10T00:24:10;4.75;;;2.70;;
78057;SDS011;67265;52.514;13.292;2023-05-10T00:26:37;5.28;;;2.80;;
78057;SDS011;67265;52.514;13.292;2023-05-10T00:29:03;7.32;;;3.90;;
78057;SDS011;67265;52.514;13.292;2023-05-10T00:31:30;4.88;;;2.67;;
78057;SDS011;67265;52.514;13.292;2023-05-10T00:33:56;5.57;;;3.17;;
78057;SDS011;67265;52.514;13.292;2023-05-10T00:36:23;5.40;;;3.22;;
78057;SDS011;67265;52.514;13.292;2023-05-10T00:38:49;6.20;;;3.20;;
78057;SDS011;67265;52.514;13.292;2023-05-10T00:41:16;5.93;;;3.08;;
78057;SDS011;67265;52.514;13.292;2023-05-10T00:43:42;4.63;;;2.53;;
78057;SDS011;67265;52.514;13.292;2023-05-10T00:46:09;7.07;;;2.80;;
78057;SDS011;67265;52.514;13.292;2023-05-10T00:48:35;4.93;;;3.00;;
78057;SDS011;67265;52.514;13.292;2023-05-10T00:51:02;6.47;;;3.40;;
78057;SDS011;67265;52.514;13.292;2023-05-10T00:53:30;3.92;;;2.88;;
78057;SDS011;67265;52.514;13.292;2023-05-10T00:55:58;5.65;;;2.92;;
78057;SDS011;67265;52.514;13.292;2023-05-10T00:58:25;9.60;;;3.25;;
78057;SDS011;67265;52.514;13.292;2023-05-10T01:00:54;5.30;;;2.72;;
78057;SDS011;67265;52.514;13.292;2023-05-10T01:06:10;3.75;;;2.78;;
78057;SDS011;67265;52.514;13.292;2023-05-10T01:08:37;4.90;;;3.20;;
78057;SDS011;67265;52.514;13.292;2023-05-10T01:11:04;5.13;;;2.78;;
78057;SDS011;67265;52.514;13.292;2023-05-10T01:16:08;9.73;;;3.05;;
78057;SDS011;67265;52.514;13.292;2023-05-10T01:18:36;5.15;;;3.20;;
78057;SDS011;67265;52.514;13.292;2023-05-10T01:24:01;5.53;;;3.40;;
78057;SDS011;67265;52.514;13.292;2023-05-10T01:32:45;5.63;;;3.15;;
78057;SDS011;67265;52.514;13.292;2023-05-10T01:35:26;5.65;;;3.30;;
78057;SDS011;67265;52.514;13.292;2023-05-10T01:43:10;6.90;;;3.05;;
78057;SDS011;67265;52.514;13.292;2023-05-10T01:48:42;4.88;;;3.05;;
78057;SDS011;67265;52.514;13.292;2023-05-10T01:51:18;5.80;;;3.30;;
78057;SDS011;67265;52.514;13.292;2023-05-10T01:53:48;7.13;;;3.97;;
78057;SDS011;67265;52.514;13.292;2023-05-10T01:56:15;5.72;;;3.75;;
78057;SDS011;67265;52.514;13.292;2023-05-10T01:58:43;6.65;;;3.55;;
78057;SDS011;67265;52.514;13.292;2023-05-10T02:01:12;6.50;;;4.15;;
78057;SDS011;67265;52.514;13.292;2023-05-10T02:03:39;6.18;;;3.78;;
78057;SDS011;67265;52.514;13.292;2023-05-10T02:06:07;5.82;;;3.25;;
78057;SDS011;67265;52.514;13.292;2023-05-10T02:08:35;9.70;;;3.33;;
78057;SDS011;67265;52.514;13.292;2023-05-10T02:11:02;5.38;;;3.25;;
78057;SDS011;67265;52.514;13.292;2023-05-10T02:16:16;5.22;;;3.20;;
78057;SDS011;67265;52.514;13.292;2023-05-10T02:21:19;5.93;;;3.38;;
78057;SDS011;67265;52.514;13.292;2023-05-10T02:26:16;7.32;;;3.45;;
78057;SDS011;67265;52.514;13.292;2023-05-10T02:28:43;6.75;;;3.42;;
78057;SDS011;67265;52.514;13.292;2023-05-10T02:31:11;5.45;;;3.22;;
78057;SDS011;67265;52.514;13.292;2023-05-10T02:33:41;4.75;;;2.97;;
78057;SDS011;67265;52.514;13.292;2023-05-10T02:36:08;6.60;;;2.92;;
78057;SDS011;67265;52.514;13.292;2023-05-10T02:38:36;4.68;;;2.90;;
78057;SDS011;67265;52.514;13.292;2023-05-10T02:41:03;5.93;;;3.58;;
78057;SDS011;67265;52.514;13.292;2023-05-10T02:48:24;9.52;;;3.65;;
78057;SDS011;67265;52.514;13.292;2023-05-10T02:50:52;5.43;;;3.38;;
78057;SDS011;67265;52.514;13.292;2023-05-10T02:53:22;6.28;;;3.65;;
78057;SDS011;67265;52.514;13.292;2023-05-10T02:55:51;5.45;;;3.22;;
78057;SDS011;67265;52.514;13.292;2023-05-10T02:58:18;5.85;;;3.33;;
78057;SDS011;67265;52.514;13.292;2023-05-10T03:00:45;5.30;;;3.00;;
78057;SDS011;67265;52.514;13.292;2023-05-10T03:03:12;4.88;;;3.13;;
78057;SDS011;67265;52.514;13.292;2023-05-10T03:05:39;6.03;;;3.30;;
78057;SDS011;67265;52.514;13.292;2023-05-10T03:13:37;7.65;;;2.90;;
78057;SDS011;67265;52.514;13.292;2023-05-10T03:16:12;5.65;;;3.25;;
78057;SDS011;67265;52.514;13.292;2023-05-10T03:19:17;6.63;;;3.53;;
78057;SDS011;67265;52.514;13.292;2023-05-10T03:21:41;4.82;;;3.15;;
78057;SDS011;67265;52.514;13.292;2023-05-10T03:24:11;4.18;;;2.80;;
78057;SDS011;67265;52.514;13.292;2023-05-10T03:26:38;4.40;;;2.92;;
78057;SDS011;67265;52.514;13.292;2023-05-10T03:29:06;5.03;;;3.72;;
78057;SDS011;67265;52.514;13.292;2023-05-10T03:34:24;7.97;;;3.17;;
78057;SDS011;67265;52.514;13.292;2023-05-10T03:39:20;5.45;;;3.08;;
78057;SDS011;67265;52.514;13.292;2023-05-10T03:44:15;4.55;;;2.90;;
78057;SDS011;67265;52.514;13.292;2023-05-10T03:46:42;3.85;;;2.63;;
78057;SDS011;67265;52.514;13.292;2023-05-10T03:54:05;5.93;;;2.72;;
78057;SDS011;67265;52.514;13.292;2023-05-10T03:56:35;5.70;;;2.92;;
78057;SDS011;67265;52.514;13.292;2023-05-10T03:59:02;6.30;;;2.63;;
78057;SDS011;67265;52.514;13.292;2023-05-10T04:01:33;5.07;;;2.80;;
78057;SDS011;67265;52.514;13.292;2023-05-10T04:04:01;4.75;;;2.75;;
78057;SDS011;67265;52.514;13.292;2023-05-10T04:06:28;5.18;;;2.60;;
78057;SDS011;67265;52.514;13.292;2023-05-10T04:08:54;6.78;;;2.80;;
78057;SDS011;67265;52.514;13.292;2023-05-10T04:11:21;5.57;;;2.92;;
78057;SDS011;67265;52.514;13.292;2023-05-10T04:16:14;6.55;;;2.95;;
78057;SDS011;67265;52.514;13.292;2023-05-10T04:18:41;7.95;;;3.13;;
78057;SDS011;67265;52.514;13.292;2023-05-10T04:21:14;5.28;;;2.70;;
78057;SDS011;67265;52.514;13.292;2023-05-10T04:23:40;5.10;;;3.10;;
78057;SDS011;67265;52.514;13.292;2023-05-10T04:26:07;5.57;;;3.08;;
78057;SDS011;67265;52.514;13.292;2023-05-10T04:28:33;6.20;;;2.42;;
78057;SDS011;67265;52.514;13.292;2023-05-10T04:31:02;5.43;;;2.67;;
78057;SDS011;67265;52.514;13.292;2023-05-10T04:33:29;4.55;;;2.72;;
78057;SDS011;67265;52.514;13.292;2023-05-10T04:35:56;3.85;;;2.33;;
78057;SDS011;67265;52.514;13.292;2023-05-10T04:38:23;8.38;;;2.38;;
78057;SDS011;67265;52.514;13.292;2023-05-10T04:45:56;5.72;;;2.38;;
78057;SDS011;67265;52.514;13.292;2023-05-10T04:48:23;4.40;;;2.50;;
78057;SDS011;67265;52.514;13.292;2023-05-10T04:50:50;4.28;;;2.50;;
78057;SDS011;67265;52.514;13.292;2023-05-10T04:58:38;5.40;;;2.60;;
78057;SDS011;67265;52.514;13.292;2023-05-10T05:01:07;6.05;;;2.33;;
78057;SDS011;67265;52.514;13.292;2023-05-10T05:03:35;8.43;;;2.92;;
78057;SDS011;67265;52.514;13.292;2023-05-10T05:06:03;4.13;;;2.47;;
78057;SDS011;67265;52.514;13.292;2023-05-10T05:08:30;4.15;;;2.25;;
78057;SDS011;67265;52.514;13.292;2023-05-10T05:10:56;5.43;;;2.40;;
78057;SDS011;67265;52.514;13.292;2023-05-10T05:21:16;5.20;;;2.72;;
78057;SDS011;67265;52.514;13.292;2023-05-10T05:28:50;5.43;;;2.47;;
78057;SDS011;67265;52.514;13.292;2023-05-10T05:31:20;3.03;;;2.10;;
78057;SDS011;67265;52.514;13.292;2023-05-10T05:33:47;5.13;;;2.45;;
78057;SDS011;67265;52.514;13.292;2023-05-10T05:36:14;4.60;;;2.15;;
78057;SDS011;67265;52.514;13.292;2023-05-10T05:43:31;4.47;;;2.28;;
78057;SDS011;67265;52.514;13.292;2023-05-10T05:45:57;4.68;;;2.45;;
78057;SDS011;67265;52.514;13.292;2023-05-10T05:48:25;3.25;;;2.00;;
78057;SDS011;67265;52.514;13.292;2023-05-10T05:50:55;3.53;;;1.55;;
78057;SDS011;67265;52.514;13.292;2023-05-10T05:53:22;4.65;;;2.05;;
78057;SDS011;67265;52.514;13.292;2023-05-10T05:58:24;6.85;;;2.08;;
78057;SDS011;67265;52.514;13.292;2023-05-10T06:00:51;3.55;;;1.65;;
78057;SDS011;67265;52.514;13.292;2023-05-10T06:03:20;6.10;;;2.33;;
78057;SDS011;67265;52.514;13.292;2023-05-10T06:05:47;5.15;;;1.90;;
78057;SDS011;67265;52.514;13.292;2023-05-10T06:08:14;5.45;;;2.30;;
78057;SDS011;67265;52.514;13.292;2023-05-10T06:10:40;4.18;;;1.90;;
78057;SDS011;67265;52.514;13.292;2023-05-10T06:13:07;4.30;;;1.95;;
78057;SDS011;67265;52.514;13.292;2023-05-10T06:15:33;3.78;;;1.83;;
78057;SDS011;67265;52.514;13.292;2023-05-10T06:18:00;2.63;;;1.65;;
78057;SDS011;67265;52.514;13.292;2023-05-10T06:20:27;3.53;;;2.40;;
78057;SDS011;67265;52.514;13.292;2023-05-10T06:22:53;3.83;;;1.80;;
78057;SDS011;67265;52.514;13.292;2023-05-10T06:25:20;5.88;;;1.83;;
78057;SDS011;67265;52.514;13.292;2023-05-10T06:27:47;4.38;;;1.50;;
78057;SDS011;67265;52.514;13.292;2023-05-10T06:30:18;2.75;;;1.67;;
78057;SDS011;67265;52.514;13.292;2023-05-10T06:32:45;4.10;;;1.98;;
78057;SDS011;67265;52.514;13.292;2023-05-10T06:35:12;3.08;;;1.42;;
78057;SDS011;67265;52.514;13.292;2023-05-10T06:37:39;1.80;;;1.20;;
78057;SDS011;67265;52.514;13.292;2023-05-10T06:40:06;2.97;;;1.80;;
78057;SDS011;67265;52.514;13.292;2023-05-10T06:42:32;2.72;;;1.50;;
78057;SDS011;67265;52.514;13.292;2023-05-10T06:44:59;4.03;;;1.50;;
78057;SDS011;67265;52.514;13.292;2023-05-10T06:47:26;2.67;;;1.20;;
78057;SDS011;67265;52.514;13.292;2023-05-10T06:57:30;3.25;;;1.58;;
78057;SDS011;67265;52.514;13.292;2023-05-10T06:59:58;1.63;;;1.17;;
78057;SDS011;67265;52.514;13.292;2023-05-10T07:02:24;2.50;;;1.35;;
78057;SDS011;67265;52.514;13.292;2023-05-10T07:04:51;2.78;;;1.33;;
78057;SDS011;67265;52.514;13.292;2023-05-10T07:07:18;2.90;;;1.48;;
78057;SDS011;67265;52.514;13.292;2023-05-10T07:09:45;2.70;;;1.58;;
78057;SDS011;67265;52.514;13.292;2023-05-10T07:12:11;2.60;;;1.35;;
78057;SDS011;67265;52.514;13.292;2023-05-10T07:14:41;2.42;;;1.30;;
78057;SDS011;67265;52.514;13.292;2023-05-10T07:17:08;3.08;;;1.25;;
78057;SDS011;67265;52.514;13.292;2023-05-10T07:19:34;2.83;;;1.80;;
78057;SDS011;67265;52.514;13.292;2023-05-10T07:22:02;3.25;;;1.50;;
78057;SDS011;67265;52.514;13.292;2023-05-10T07:24:28;4.40;;;1.27;;
78057;SDS011;67265;52.514;13.292;2023-05-10T07:26:55;4.10;;;1.40;;
78057;SDS011;67265;52.514;13.292;2023-05-10T07:29:21;2.72;;;1.33;;
78057;SDS011;67265;52.514;13.292;2023-05-10T07:31:47;2.97;;;1.60;;
78057;SDS011;67265;52.514;13.292;2023-05-10T07:34:14;4.22;;;1.60;;
78057;SDS011;67265;52.514;13.292;2023-05-10T07:36:40;2.60;;;1.55;;
78057;SDS011;67265;52.514;13.292;2023-05-10T07:39:07;2.60;;;1.58;;
78057;SDS011;67265;52.514;13.292;2023-05-10T07:41:33;2.25;;;1.20;;
78057;SDS011;67265;52.514;13.292;2023-05-10T07:44:01;2.95;;;1.60;;
78057;SDS011;67265;52.514;13.292;2023-05-10T07:46:27;4.03;;;1.42;;
78057;SDS011;67265;52.514;13.292;2023-05-10T07:48:54;1.98;;;1.42;;
78057;SDS011;67265;52.514;13.292;2023-05-10T07:51:21;4.43;;;1.45;;
78057;SDS011;67265;52.514;13.292;2023-05-10T07:53:48;2.47;;;1.23;;
78057;SDS011;67265;52.514;13.292;2023-05-10T07:56:21;3.30;;;1.30;;
78057;SDS011;67265;52.514;13.292;2023-05-10T07:58:48;1.65;;;1.02;;
78057;SDS011;67265;52.514;13.292;2023-05-10T08:01:14;3.70;;;1.55;;
78057;SDS011;67265;52.514;13.292;2023-05-10T08:03:41;2.55;;;1.25;;
78057;SDS011;67265;52.514;13.292;2023-05-10T08:06:07;2.47;;;1.50;;
78057;SDS011;67265;52.514;13.292;2023-05-10T08:08:34;2.88;;;1.25;;
78057;SDS011;67265;52.514;13.292;2023-05-10T08:11:00;3.17;;;1.13;;
78057;SDS011;67265;52.514;13.292;2023-05-10T08:13:26;4.40;;;1.23;;
78057;SDS011;67265;52.514;13.292;2023-05-10T08:15:53;2.03;;;1.13;;
78057;SDS011;67265;52.514;13.292;2023-05-10T08:18:20;1.83;;;1.25;;
78057;SDS011;67265;52.514;13.292;2023-05-10T08:20:47;3.65;;;1.20;;
78057;SDS011;67265;52.514;13.292;2023-05-10T08:23:13;2.25;;;1.35;;
78057;SDS011;67265;52.514;13.292;2023-05-10T08:25:40;4.68;;;1.33;;
78057;SDS011;67265;52.514;13.292;2023-05-10T08:28:06;2.83;;;1.35;;
78057;SDS011;67265;52.514;13.292;2023-05-10T08:30:35;3.80;;;1.20;;
78057;SDS011;67265;52.514;13.292;2023-05-10T08:33:02;2.47;;;1.20;;
78057;SDS011;67265;52.514;13.292;2023-05-10T08:35:28;3.83;;;1.20;;
78057;SDS011;67265;52.514;13.292;2023-05-10T08:37:55;2.50;;;1.30;;
78057;SDS011;67265;52.514;13.292;2023-05-10T08:40:21;1.92;;;1.38;;
78057;SDS011;67265;52.514;13.292;2023-05-10T08:45:39;1.83;;;0.95;;
78057;SDS011;67265;52.514;13.292;2023-05-10T08:48:08;2.78;;;1.33;;
78057;SDS011;67265;52.514;13.292;2023-05-10T08:50:36;2.80;;;1.27;;
78057;SDS011;67265;52.514;13.292;2023-05-10T08:53:05;4.88;;;1.67;;
78057;SDS011;67265;52.514;13.292;2023-05-10T08:55:33;3.35;;;1.25;;
78057;SDS011;67265;52.514;13.292;2023-05-10T08:58:00;2.42;;;1.60;;
78057;SDS011;67265;52.514;13.292;2023-05-10T09:00:26;2.72;;;1.60;;
78057;SDS011;67265;52.514;13.292;2023-05-10T09:02:53;3.78;;;1.67;;
78057;SDS011;67265;52.514;13.292;2023-05-10T09:05:19;3.67;;;1.50;;
78057;SDS011;67265;52.514;13.292;2023-05-10T09:07:46;2.70;;;1.55;;
78057;SDS011;67265;52.514;13.292;2023-05-10T09:10:13;1.83;;;1.30;;
78057;SDS011;67265;52.514;13.292;2023-05-10T09:12:39;2.65;;;1.35;;
78057;SDS011;67265;52.514;13.292;2023-05-10T09:15:07;2.63;;;1.65;;
78057;SDS011;67265;52.514;13.292;2023-05-10T09:17:33;3.55;;;1.60;;
78057;SDS011;67265;52.514;13.292;2023-05-10T09:20:01;2.72;;;1.45;;
78057;SDS011;67265;52.514;13.292;2023-05-10T09:22:30;2.47;;;1.33;;
78057;SDS011;67265;52.514;13.292;2023-05-10T09:25:04;6.40;;;1.48;;
78057;SDS011;67265;52.514;13.292;2023-05-10T09:27:32;3.90;;;1.33;;
78057;SDS011;67265;52.514;13.292;2023-05-10T09:29:58;6.22;;;1.50;;
78057;SDS011;67265;52.514;13.292;2023-05-10T09:32:39;2.53;;;1.30;;
78057;SDS011;67265;52.514;13.292;2023-05-10T09:35:10;4.38;;;1.35;;
78057;SDS011;67265;52.514;13.292;2023-05-10T09:37:41;2.83;;;1.20;;
78057;SDS011;67265;52.514;13.292;2023-05-10T09:43:03;2.13;;;1.23;;
78057;SDS011;67265;52.514;13.292;2023-05-10T09:45:33;2.17;;;1.23;;
78057;SDS011;67265;52.514;13.292;2023-05-10T09:48:04;3.75;;;1.40;;
78057;SDS011;67265;52.514;13.292;2023-05-10T09:50:30;2.72;;;1.50;;
78057;SDS011;67265;52.514;13.292;2023-05-10T09:52:58;5.63;;;1.45;;
78057;SDS011;67265;52.514;13.292;2023-05-10T10:00:28;2.67;;;1.33;;
78057;SDS011;67265;52.514;13.292;2023-05-10T10:03:01;2.30;;;1.48;;
78057;SDS011;67265;52.514;13.292;2023-05-10T10:05:34;2.38;;;1.63;;
78057;SDS011;67265;52.514;13.292;2023-05-10T10:08:02;2.80;;;1.45;;
78057;SDS011;67265;52.514;13.292;2023-05-10T10:10:32;2.70;;;1.30;;
78057;SDS011;67265;52.514;13.292;2023-05-10T10:12:59;4.53;;;1.33;;
78057;SDS011;67265;52.514;13.292;2023-05-10T10:15:27;2.88;;;1.40;;
78057;SDS011;67265;52.514;13.292;2023-05-10T10:17:53;4.43;;;1.58;;
78057;SDS011;67265;52.514;13.292;2023-05-10T10:20:21;3.08;;;1.25;;
78057;SDS011;67265;52.514;13.292;2023-05-10T10:22:48;1.95;;;1.33;;
78057;SDS011;67265;52.514;13.292;2023-05-10T10:25:15;3.65;;;1.40;;
78057;SDS011;67265;52.514;13.292;2023-05-10T10:35:21;2.38;;;1.30;;
78057;SDS011;67265;52.514;13.292;2023-05-10T10:37:50;2.45;;;1.60;;
78057;SDS011;67265;52.514;13.292;2023-05-10T10:40:23;2.42;;;1.30;;
78057;SDS011;67265;52.514;13.292;2023-05-10T10:42:50;3.33;;;1.70;;
78057;SDS011;67265;52.514;13.292;2023-05-10T10:45:17;3.13;;;1.60;;
78057;SDS011;67265;52.514;13.292;2023-05-10T10:47:44;3.83;;;1.40;;
78057;SDS011;67265;52.514;13.292;2023-05-10T10:50:11;2.95;;;1.38;;
78057;SDS011;67265;52.514;13.292;2023-05-10T10:52:42;3.03;;;1.55;;
78057;SDS011;67265;52.514;13.292;2023-05-10T10:55:19;2.88;;;1.63;;
78057;SDS011;67265;52.514;13.292;2023-05-10T10:57:52;4.20;;;1.27;;
78057;SDS011;67265;52.514;13.292;2023-05-10T11:03:01;3.28;;;1.30;;
78057;SDS011;67265;52.514;13.292;2023-05-10T11:07:59;3.35;;;1.50;;
78057;SDS011;67265;52.514;13.292;2023-05-10T11:10:26;2.17;;;1.17;;
78057;SDS011;67265;52.514;13.292;2023-05-10T11:12:58;2.53;;;1.15;;
78057;SDS011;67265;52.514;13.292;2023-05-10T11:15:48;2.30;;;1.55;;
78057;SDS011;67265;52.514;13.292;2023-05-10T11:20:42;2.63;;;1.52;;
78057;SDS011;67265;52.514;13.292;2023-05-10T11:23:12;2.97;;;1.33;;
78057;SDS011;67265;52.514;13.292;2023-05-10T11:25:42;3.28;;;1.45;;
78057;SDS011;67265;52.514;13.292;2023-05-10T11:28:13;2.38;;;1.40;;
78057;SDS011;67265;52.514;13.292;2023-05-10T11:30:40;4.13;;;1.33;;
78057;SDS011;67265;52.514;13.292;2023-05-10T11:33:07;2.67;;;1.30;;
78057;SDS011;67265;52.514;13.292;2023-05-10T11:35:37;3.05;;;1.35;;
78057;SDS011;67265;52.514;13.292;2023-05-10T11:38:09;2.83;;;1.55;;
78057;SDS011;67265;52.514;13.292;2023-05-10T11:40:37;2.00;;;1.27;;
78057;SDS011;67265;52.514;13.292;2023-05-10T11:43:04;3.40;;;1.50;;
78057;SDS011;67265;52.514;13.292;2023-05-10T11:45:32;1.98;;;1.33;;
78057;SDS011;67265;52.514;13.292;2023-05-10T11:47:59;4.65;;;1.30;;
78057;SDS011;67265;52.514;13.292;2023-05-10T11:50:26;2.47;;;1.48;;
78057;SDS011;67265;52.514;13.292;2023-05-10T11:52:54;2.88;;;1.20;;
78057;SDS011;67265;52.514;13.292;2023-05-10T11:55:21;2.72;;;1.08;;
78057;SDS011;67265;52.514;13.292;2023-05-10T11:57:51;1.92;;;1.38;;
78057;SDS011;67265;52.514;13.292;2023-05-10T12:00:18;2.53;;;1.02;;
78057;SDS011;67265;52.514;13.292;2023-05-10T12:02:45;3.80;;;1.33;;
78057;SDS011;67265;52.514;13.292;2023-05-10T12:05:12;5.47;;;1.27;;
78057;SDS011;67265;52.514;13.292;2023-05-10T12:07:39;1.95;;;1.15;;
78057;SDS011;67265;52.514;13.292;2023-05-10T12:10:06;2.47;;;1.30;;
78057;SDS011;67265;52.514;13.292;2023-05-10T12:12:37;2.47;;;0.98;;
78057;SDS011;67265;52.514;13.292;2023-05-10T12:15:17;3.28;;;1.30;;
78057;SDS011;67265;52.514;13.292;2023-05-10T12:17:48;2.33;;;1.30;;
78057;SDS011;67265;52.514;13.292;2023-05-10T12:20:16;3.03;;;1.55;;
78057;SDS011;67265;52.514;13.292;2023-05-10T12:22:52;2.25;;;1.20;;
78057;SDS011;67265;52.514;13.292;2023-05-10T12:25:22;3.92;;;1.60;;
78057;SDS011;67265;52.514;13.292;2023-05-10T12:27:55;3.40;;;1.40;;
78057;SDS011;67265;52.514;13.292;2023-05-10T12:30:24;4.60;;;1.52;;
78057;SDS011;67265;52.514;13.292;2023-05-10T12:32:59;1.95;;;1.23;;
78057;SDS011;67265;52.514;13.292;2023-05-10T12:35:29;2.65;;;1.13;;
78057;SDS011;67265;52.514;13.292;2023-05-10T12:37:56;2.45;;;1.13;;
78057;SDS011;67265;52.514;13.292;2023-05-10T12:40:23;2.83;;;1.42;;
78057;SDS011;67265;52.514;13.292;2023-05-10T12:42:49;5.20;;;1.48;;
78057;SDS011;67265;52.514;13.292;2023-05-10T12:45:16;3.88;;;1.27;;
78057;SDS011;67265;52.514;13.292;2023-05-10T12:47:43;2.58;;;1.48;;
78057;SDS011;67265;52.514;13.292;2023-05-10T12:50:10;4.60;;;1.30;;
78057;SDS011;67265;52.514;13.292;2023-05-10T12:52:37;2.95;;;1.40;;
78057;SDS011;67265;52.514;13.292;2023-05-10T12:55:03;2.97;;;1.20;;
78057;SDS011;67265;52.514;13.292;2023-05-10T12:57:30;1.95;;;1.15;;
78057;SDS011;67265;52.514;13.292;2023-05-10T12:59:57;2.00;;;1.30;;
78057;SDS011;67265;52.514;13.292;2023-05-10T13:02:23;2.65;;;1.33;;
78057;SDS011;67265;52.514;13.292;2023-05-10T13:04:50;4.30;;;1.52;;
78057;SDS011;67265;52.514;13.292;2023-05-10T13:07:16;1.80;;;1.27;;
78057;SDS011;67265;52.514;13.292;2023-05-10T13:09:43;3.42;;;1.20;;
78057;SDS011;67265;52.514;13.292;2023-05-10T13:12:09;4.72;;;1.42;;
78057;SDS011;67265;52.514;13.292;2023-05-10T13:14:36;2.65;;;1.23;;
78057;SDS011;67265;52.514;13.292;2023-05-10T13:17:03;4.85;;;1.52;;
78057;SDS011;67265;52.514;13.292;2023-05-10T13:19:29;3.22;;;1.20;;
78057;SDS011;67265;52.514;13.292;2023-05-10T13:21:56;2.25;;;1.45;;
78057;SDS011;67265;52.514;13.292;2023-05-10T13:24:22;4.80;;;1.10;;
78057;SDS011;67265;52.514;13.292;2023-05-10T13:26:49;4.70;;;1.60;;
78057;SDS011;67265;52.514;13.292;2023-05-10T13:29:15;2.72;;;1.27;;
78057;SDS011;67265;52.514;13.292;2023-05-10T13:31:44;2.03;;;1.42;;
78057;SDS011;67265;52.514;13.292;2023-05-10T13:34:10;1.85;;;1.15;;
78057;SDS011;67265;52.514;13.292;2023-05-10T13:36:37;2.25;;;1.15;;
78057;SDS011;67265;52.514;13.292;2023-05-10T13:39:04;3.72;;;1.33;;
78057;SDS011;67265;52.514;13.292;2023-05-10T13:41:31;2.65;;;1.60;;
78057;SDS011;67265;52.514;13.292;2023-05-10T13:43:57;1.77;;;1.13;;
78057;SDS011;67265;52.514;13.292;2023-05-10T13:46:24;4.18;;;1.73;;
78057;SDS011;67265;52.514;13.292;2023-05-10T13:48:51;2.55;;;1.42;;
78057;SDS011;67265;52.514;13.292;2023-05-10T13:51:17;2.38;;;1.60;;
78057;SDS011;67265;52.514;13.292;2023-05-10T13:53:43;2.55;;;1.65;;
78057;SDS011;67265;52.514;13.292;2023-05-10T13:56:10;3.03;;;1.30;;
78057;SDS011;67265;52.514;13.292;2023-05-10T13:58:36;2.88;;;1.33;;
78057;SDS011;67265;52.514;13.292;2023-05-10T14:01:03;2.50;;;1.50;;
78057;SDS011;67265;52.514;13.292;2023-05-10T14:03:30;3.10;;;1.42;;
78057;SDS011;67265;52.514;13.292;2023-05-10T14:05:57;3.50;;;1.40;;
78057;SDS011;67265;52.514;13.292;2023-05-10T14:08:24;2.42;;;1.40;;
78057;SDS011;67265;52.514;13.292;2023-05-10T14:10:50;2.72;;;1.73;;
78057;SDS011;67265;52.514;13.292;2023-05-10T14:13:18;3.50;;;1.30;;
78057;SDS011;67265;52.514;13.292;2023-05-10T14:15:44;3.97;;;1.23;;
78057;SDS011;67265;52.514;13.292;2023-05-10T14:18:11;2.35;;;1.05;;
78057;SDS011;67265;52.514;13.292;2023-05-10T14:20:37;2.72;;;1.70;;
78057;SDS011;67265;52.514;13.292;2023-05-10T14:23:04;3.10;;;1.20;;
78057;SDS011;67265;52.514;13.292;2023-05-10T14:25:30;2.08;;;1.23;;
78057;SDS011;67265;52.514;13.292;2023-05-10T14:27:57;8.02;;;2.35;;
78057;SDS011;67265;52.514;13.292;2023-05-10T14:30:23;3.22;;;1.50;;
78057;SDS011;67265;52.514;13.292;2023-05-10T14:32:50;1.90;;;1.30;;
78057;SDS011;67265;52.514;13.292;2023-05-10T14:35:17;3.05;;;1.38;;
78057;SDS011;67265;52.514;13.292;2023-05-10T14:37:45;5.28;;;1.48;;
78057;SDS011;67265;52.514;13.292;2023-05-10T14:40:11;3.08;;;1.42;;
78057;SDS011;67265;52.514;13.292;2023-05-10T14:42:38;4.40;;;1.60;;
78057;SDS011;67265;52.514;13.292;2023-05-10T14:45:05;3.20;;;1.63;;
78057;SDS011;67265;52.514;13.292;2023-05-10T14:47:32;2.38;;;1.48;;
78057;SDS011;67265;52.514;13.292;2023-05-10T14:49:58;2.03;;;1.27;;
78057;SDS011;67265;52.514;13.292;2023-05-10T14:52:25;2.33;;;1.33;;
78057;SDS011;67265;52.514;13.292;2023-05-10T14:54:51;2.10;;;1.30;;
78057;SDS011;67265;52.514;13.292;2023-05-10T14:57:18;2.75;;;1.40;;
78057;SDS011;67265;52.514;13.292;2023-05-10T15:38:54;3.28;;;1.85;;
78057;SDS011;67265;52.514;13.292;2023-05-10T15:47:50;2.72;;;1.48;;
78057;SDS011;67265;52.514;13.292;2023-05-10T16:31:25;5.30;;;3.35;;
78057;SDS011;67265;52.514;13.292;2023-05-10T16:33:52;4.55;;;2.78;;
78057;SDS011;67265;52.514;13.292;2023-05-10T16:36:18;5.60;;;2.75;;
78057;SDS011;67265;52.514;13.292;2023-05-10T16:38:45;3.30;;;2.53;;
78057;SDS011;67265;52.514;13.292;2023-05-10T16:41:11;6.32;;;2.97;;
78057;SDS011;67265;52.514;13.292;2023-05-10T16:43:38;4.30;;;2.88;;
78057;SDS011;67265;52.514;13.292;2023-05-10T16:46:08;8.07;;;3.58;;
78057;SDS011;67265;52.514;13.292;2023-05-10T16:48:36;6.30;;;3.10;;
78057;SDS011;67265;52.514;13.292;2023-05-10T16:51:02;6.63;;;3.28;;
78057;SDS011;67265;52.514;13.292;2023-05-10T16:53:32;6.15;;;3.35;;
78057;SDS011;67265;52.514;13.292;2023-05-10T16:55:59;5.93;;;2.72;;
78057;SDS011;67265;52.514;13.292;2023-05-10T16:58:26;7.10;;;3.15;;
78057;SDS011;67265;52.514;13.292;2023-05-10T17:00:52;4.78;;;3.25;;
78057;SDS011;67265;52.514;13.292;2023-05-10T17:03:18;4.07;;;2.72;;
78057;SDS011;67265;52.514;13.292;2023-05-10T17:05:45;6.47;;;3.10;;
78057;SDS011;67265;52.514;13.292;2023-05-10T17:08:12;6.70;;;3.00;;
78057;SDS011;67265;52.514;13.292;2023-05-10T17:10:38;4.85;;;3.58;;
78057;SDS011;67265;52.514;13.292;2023-05-10T17:13:05;4.70;;;3.08;;
78057;SDS011;67265;52.514;13.292;2023-05-10T17:15:35;5.20;;;2.92;;
78057;SDS011;67265;52.514;13.292;2023-05-10T17:18:03;4.50;;;2.90;;
78057;SDS011;67265;52.514;13.292;2023-05-10T17:20:29;4.55;;;3.10;;
78057;SDS011;67265;52.514;13.292;2023-05-10T17:22:56;5.07;;;2.88;;
78057;SDS011;67265;52.514;13.292;2023-05-10T17:25:22;5.72;;;3.75;;
78057;SDS011;67265;52.514;13.292;2023-05-10T17:27:49;5.75;;;3.25;;
78057;SDS011;67265;52.514;13.292;2023-05-10T17:30:15;6.00;;;3.55;;
78057;SDS011;67265;52.514;13.292;2023-05-10T17:32:44;5.20;;;3.08;;
78057;SDS011;67265;52.514;13.292;2023-05-10T17:35:11;6.15;;;3.80;;
78057;SDS011;67265;52.514;13.292;2023-05-10T17:37:37;5.30;;;3.45;;
78057;SDS011;67265;52.514;13.292;2023-05-10T17:40:05;6.72;;;3.03;;
78057;SDS011;67265;52.514;13.292;2023-05-10T17:42:32;6.25;;;3.50;;
78057;SDS011;67265;52.514;13.292;2023-05-10T17:44:59;5.22;;;3.45;;
78057;SDS011;67265;52.514;13.292;2023-05-10T17:47:26;5.65;;;3.85;;
78057;SDS011;67265;52.514;13.292;2023-05-10T17:49:53;6.07;;;3.42;;
78057;SDS011;67265;52.514;13.292;2023-05-10T17:52:19;4.10;;;2.92;;
78057;SDS011;67265;52.514;13.292;2023-05-10T17:54:46;5.05;;;3.67;;
78057;SDS011;67265;52.514;13.292;2023-05-10T17:57:12;8.57;;;3.85;;
78057;SDS011;67265;52.514;13.292;2023-05-10T17:59:39;5.35;;;3.33;;
78057;SDS011;67265;52.514;13.292;2023-05-10T18:02:05;5.07;;;3.40;;
78057;SDS011;67265;52.514;13.292;2023-05-10T18:04:32;4.78;;;3.65;;